Time;durP1;ratioP1;P1;durP2;ratioP2;P2;SDS_P1;SDS_P2;PMS_P1;PMS_P2;Temp;Humidity;BMP_temperature;BMP_pressure;BME280_temperature;BME280_humidity;BME280_pressure;Samples;Min_cycle;Max_cycle;Signal;HPM_P1;HPM_P2
2023/05/03 00:02:04;;;;;;;4.07;2.97;;;9.20;99.90;;;;;;5049492;28;20682;-68
2023/05/03 00:04:32;;;;;;;5.05;3.42;;;9.10;99.90;;;;;;5049749;28;20283;-69
2023/05/03 00:06:58;;;;;;;5.10;3.28;;;9.10;99.90;;;;;;5049833;28;20217;-68
2023/05/03 00:09:25;;;;;;;3.38;2.97;;;9.10;99.90;;;;;;5048908;28;20193;-69
2023/05/03 00:11:52;;;;;;;3.15;2.70;;;9.00;99.90;;;;;;5049552;28;20220;-68
2023/05/03 00:14:20;;;;;;;3.25;2.97;;;8.90;99.90;;;;;;5049175;28;20205;-69
2023/05/03 00:16:47;;;;;;;7.22;3.17;;;8.90;99.90;;;;;;5049139;28;20295;-68
2023/05/03 00:19:13;;;;;;;4.35;3.15;;;8.90;99.90;;;;;;5049499;28;20212;-68
2023/05/03 00:21:40;;;;;;;4.65;2.60;;;9.00;99.90;;;;;;5048618;28;20254;-68
2023/05/03 00:24:07;;;;;;;3.72;3.10;;;9.00;99.90;;;;;;5048563;28;20197;-68
2023/05/03 00:26:33;;;;;;;2.85;2.20;;;8.90;99.90;;;;;;5049184;28;20224;-68
2023/05/03 00:29:00;;;;;;;3.60;2.92;;;8.90;99.90;;;;;;5049108;28;20205;-69
2023/05/03 00:33:56;;;;;;;4.93;3.03;;;8.90;99.90;;;;;;5028278;28;20252;-70
2023/05/03 00:36:23;;;;;;;2.60;2.40;;;8.90;99.90;;;;;;5033400;28;20283;-70
2023/05/03 00:38:49;;;;;;;3.15;2.50;;;8.90;99.90;;;;;;5049938;28;20209;-69
2023/05/03 00:41:16;;;;;;;6.13;3.55;;;8.90;99.90;;;;;;5049256;28;20672;-69
2023/05/03 00:43:43;;;;;;;4.22;3.20;;;8.90;99.90;;;;;;5049375;28;20644;-69
2023/05/03 00:46:10;;;;;;;4.22;2.88;;;8.80;99.90;;;;;;5049527;28;20227;-69
2023/05/03 00:48:37;;;;;;;3.65;2.72;;;8.80;99.90;;;;;;5049774;28;20201;-69
2023/05/03 00:51:06;;;;;;;4.28;3.53;;;8.80;99.90;;;;;;5049140;28;20197;-69
2023/05/03 00:53:33;;;;;;;5.55;3.38;;;8.80;99.90;;;;;;5049390;28;20201;-69
2023/05/03 00:56:00;;;;;;;3.75;3.25;;;8.80;99.90;;;;;;5049238;28;20221;-69
2023/05/03 00:58:27;;;;;;;3.78;2.83;;;8.80;99.90;;;;;;5049267;28;20194;-69
2023/05/03 01:00:54;;;;;;;4.00;3.10;;;8.80;99.90;;;;;;5049645;28;20212;-69
2023/05/03 01:03:22;;;;;;;3.55;3.20;;;8.80;99.90;;;;;;5048926;28;20197;-69
2023/05/03 01:05:59;;;;;;;3.28;2.97;;;8.80;99.90;;;;;;5049875;28;20271;-70
2023/05/03 01:08:32;;;;;;;4.80;3.30;;;8.70;99.90;;;;;;5033989;28;20244;-69
2023/05/03 01:11:04;;;;;;;3.55;2.75;;;8.70;99.90;;;;;;5049377;28;20753;-69
2023/05/03 01:13:38;;;;;;;4.05;3.30;;;8.70;99.90;;;;;;5048960;28;20640;-69
2023/05/03 01:16:11;;;;;;;4.18;3.25;;;8.70;99.90;;;;;;5049200;28;20642;-69
2023/05/03 01:18:43;;;;;;;4.45;3.67;;;8.70;99.90;;;;;;5049284;28;20573;-69
2023/05/03 01:21:10;;;;;;;3.72;2.90;;;8.60;99.90;;;;;;5049130;28;20201;-69
2023/05/03 01:23:50;;;;;;;4.03;3.05;;;8.60;99.90;;;;;;5049076;28;20235;-69
2023/05/03 01:26:23;;;;;;;3.53;3.22;;;8.60;99.90;;;;;;5048864;28;20229;-69
2023/05/03 01:28:49;;;;;;;4.35;3.38;;;8.50;99.90;;;;;;5049198;28;20193;-69
2023/05/03 01:31:22;;;;;;;3.97;3.50;;;8.50;99.90;;;;;;5048658;28;20209;-69
2023/05/03 01:34:03;;;;;;;4.63;3.40;;;8.50;99.90;;;;;;5048870;28;20720;-69
2023/05/03 01:36:32;;;;;;;5.03;3.95;;;8.50;99.90;;;;;;5052085;28;20225;-69
2023/05/03 01:39:04;;;;;;;3.15;2.85;;;8.40;99.90;;;;;;5052820;28;20234;-69
2023/05/03 01:41:32;;;;;;;4.05;2.90;;;8.40;99.90;;;;;;5052316;28;20189;-69
2023/05/03 01:44:00;;;;;;;4.05;2.95;;;8.30;99.90;;;;;;5052848;28;20209;-69
2023/05/03 01:46:26;;;;;;;3.70;3.15;;;8.20;99.90;;;;;;5036618;28;20927;-69
2023/05/03 01:48:53;;;;;;;3.20;2.90;;;8.20;99.90;;;;;;5053074;28;20205;-69
2023/05/03 01:51:20;;;;;;;4.65;3.10;;;8.10;99.90;;;;;;5052592;28;20201;-69
2023/05/03 01:53:46;;;;;;;3.33;2.88;;;8.00;99.90;;;;;;5052807;28;20197;-69
2023/05/03 01:56:13;;;;;;;3.88;2.53;;;8.00;99.90;;;;;;5052542;28;20221;-69
2023/05/03 01:58:41;;;;;;;3.97;3.47;;;7.90;99.90;;;;;;5052633;28;20205;-69
2023/05/03 02:01:08;;;;;;;4.03;3.10;;;7.80;99.90;;;;;;5052466;28;20204;-69
2023/05/03 02:03:34;;;;;;;4.30;3.08;;;7.80;99.90;;;;;;5052391;28;20597;-69
2023/05/03 02:06:01;;;;;;;4.20;2.70;;;7.70;99.90;;;;;;5052658;28;20735;-69
2023/05/03 02:08:28;;;;;;;3.95;2.80;;;7.60;99.90;;;;;;5052339;28;20200;-69
2023/05/03 02:10:54;;;;;;;6.60;3.80;;;7.50;99.90;;;;;;5052513;28;20205;-69
2023/05/03 02:13:21;;;;;;;4.25;3.13;;;7.50;99.90;;;;;;5051999;28;20217;-69
2023/05/03 02:15:49;;;;;;;3.22;2.90;;;7.40;99.90;;;;;;5052628;28;20224;-69
2023/05/03 02:18:17;;;;;;;3.20;2.88;;;7.30;99.90;;;;;;5052179;28;20664;-68
2023/05/03 02:20:45;;;;;;;5.00;3.00;;;7.30;99.90;;;;;;5052428;28;20197;-68
2023/05/03 02:23:13;;;;;;;5.30;3.45;;;7.10;99.90;;;;;;5052203;28;20213;-68
2023/05/03 02:25:39;;;;;;;5.25;2.92;;;7.10;99.90;;;;;;5052311;28;20278;-68
2023/05/03 02:28:06;;;;;;;4.90;3.13;;;7.10;99.90;;;;;;5052215;28;20224;-68
2023/05/03 02:30:33;;;;;;;6.55;3.33;;;7.00;99.90;;;;;;5052292;28;20275;-69
2023/05/03 02:33:02;;;;;;;4.75;3.70;;;7.00;99.90;;;;;;5051828;28;20220;-68
2023/05/03 02:35:28;;;;;;;4.20;3.17;;;7.00;99.90;;;;;;5051913;28;20244;-69
2023/05/03 02:37:55;;;;;;;3.70;3.03;;;7.00;99.90;;;;;;5051963;28;20202;-69
2023/05/03 02:40:22;;;;;;;4.72;3.45;;;6.90;99.90;;;;;;5051786;28;20254;-69
2023/05/03 02:42:49;;;;;;;5.13;3.20;;;6.90;99.90;;;;;;5051753;28;20193;-69
2023/05/03 02:45:16;;;;;;;4.78;3.47;;;6.90;99.90;;;;;;5051939;28;20605;-70
2023/05/03 02:47:42;;;;;;;5.35;3.63;;;6.80;99.90;;;;;;5050849;28;20668;-69
2023/05/03 02:50:11;;;;;;;4.30;3.25;;;6.80;99.90;;;;;;5051557;28;20197;-68
2023/05/03 02:52:37;;;;;;;8.23;4.47;;;6.70;99.90;;;;;;5051503;28;20221;-69
2023/05/03 02:55:05;;;;;;;5.90;3.47;;;6.70;99.90;;;;;;5051828;28;20216;-69
2023/05/03 02:57:32;;;;;;;4.38;3.45;;;6.70;99.90;;;;;;5035573;28;20737;-69
2023/05/03 02:59:58;;;;;;;4.25;3.85;;;6.60;99.90;;;;;;5051488;28;20204;-69
2023/05/03 03:02:25;;;;;;;4.05;3.40;;;6.70;99.90;;;;;;5050947;28;20204;-68
2023/05/03 03:04:52;;;;;;;6.07;4.05;;;6.60;99.90;;;;;;5052435;28;20204;-68
2023/05/03 03:07:20;;;;;;;5.78;3.85;;;6.60;99.90;;;;;;5051338;28;20315;-68
2023/05/03 03:09:46;;;;;;;6.30;3.25;;;6.60;99.90;;;;;;5051278;28;20197;-68
2023/05/03 03:12:13;;;;;;;3.70;3.20;;;6.60;99.90;;;;;;5050791;28;20223;-68
2023/05/03 03:14:40;;;;;;;6.10;3.33;;;6.50;99.90;;;;;;5051267;28;20228;-68
2023/05/03 03:17:08;;;;;;;4.63;3.30;;;6.50;99.90;;;;;;5051110;28;20271;-68
2023/05/03 03:19:35;;;;;;;8.60;3.85;;;6.40;99.90;;;;;;5050970;28;20258;-68
2023/05/03 03:22:02;;;;;;;4.60;3.67;;;6.40;99.90;;;;;;5051139;28;20201;-68
2023/05/03 03:24:30;;;;;;;5.95;4.13;;;6.40;99.90;;;;;;5050492;28;20232;-68
2023/05/03 03:26:57;;;;;;;4.70;3.70;;;6.40;99.90;;;;;;5050920;28;20608;-67
2023/05/03 03:29:23;;;;;;;4.00;3.30;;;6.30;99.90;;;;;;5050464;28;20224;-68
2023/05/03 03:31:50;;;;;;;11.05;3.83;;;6.20;99.90;;;;;;5050668;28;20216;-68
2023/05/03 03:34:17;;;;;;;5.80;3.92;;;6.30;99.90;;;;;;5047569;28;20886;-68
2023/05/03 03:36:44;;;;;;;7.32;4.38;;;6.20;99.90;;;;;;5047682;28;20217;-68
2023/05/03 03:39:10;;;;;;;5.35;4.00;;;6.20;99.90;;;;;;5047682;28;20201;-68
2023/05/03 03:41:39;;;;;;;6.50;4.40;;;6.30;99.90;;;;;;5047858;28;20507;-68
2023/05/03 03:44:05;;;;;;;4.13;3.65;;;6.30;99.90;;;;;;5047669;28;20197;-68
2023/05/03 03:46:32;;;;;;;6.07;3.95;;;6.40;99.90;;;;;;5049882;28;20220;-68
2023/05/03 03:48:59;;;;;;;6.70;4.07;;;6.40;99.90;;;;;;5050663;28;20714;-69
2023/05/03 03:51:28;;;;;;;5.68;4.20;;;6.50;99.90;;;;;;5050442;28;20198;-69
2023/05/03 03:53:54;;;;;;;6.50;3.70;;;6.60;99.90;;;;;;5050437;28;20236;-69
2023/05/03 03:56:22;;;;;;;4.93;3.45;;;6.60;99.90;;;;;;5050340;28;20602;-69
2023/05/03 03:58:50;;;;;;;7.65;4.40;;;6.60;99.90;;;;;;5050354;28;20289;-69
2023/05/03 04:01:17;;;;;;;5.88;4.30;;;6.60;99.90;;;;;;5050060;28;20201;-69
2023/05/03 04:03:46;;;;;;;6.18;3.95;;;6.70;99.90;;;;;;5050378;28;20866;-69
2023/05/03 04:06:13;;;;;;;3.95;3.42;;;6.70;99.90;;;;;;5050144;28;20217;-68
2023/05/03 04:08:39;;;;;;;10.07;5.47;;;6.70;99.90;;;;;;5050122;28;20201;-68
2023/05/03 04:11:10;;;;;;;6.93;5.25;;;6.80;99.90;;;;;;5028679;28;20460;-68
2023/05/03 04:13:37;;;;;;;6.30;4.20;;;6.90;99.90;;;;;;5026037;28;20295;-67
2023/05/03 04:16:06;;;;;;;7.53;5.40;;;6.90;99.90;;;;;;5022858;28;20229;-68
2023/05/03 04:18:32;;;;;;;9.85;5.10;;;7.00;99.90;;;;;;5023961;28;20242;-69
2023/05/03 04:20:59;;;;;;;8.93;5.78;;;7.10;99.90;;;;;;5021617;28;20202;-67
2023/05/03 04:23:26;;;;;;;6.57;5.03;;;7.20;99.90;;;;;;5023546;28;20654;-68
2023/05/03 04:25:53;;;;;;;6.65;5.07;;;7.30;99.90;;;;;;5018734;28;20233;-68
2023/05/03 04:28:19;;;;;;;10.45;5.38;;;7.40;99.90;;;;;;5014824;28;20575;-68
2023/05/03 04:30:47;;;;;;;11.38;5.22;;;7.40;99.90;;;;;;5048708;28;20284;-67
2023/05/03 04:33:15;;;;;;;8.02;5.15;;;7.50;99.90;;;;;;5045512;28;20571;-67
2023/05/03 04:35:42;;;;;;;7.03;4.65;;;7.60;99.90;;;;;;5046463;28;20717;-68
2023/05/03 04:38:09;;;;;;;6.13;5.05;;;7.70;99.90;;;;;;5046716;28;20204;-68
2023/05/03 04:40:36;;;;;;;9.57;5.07;;;7.80;99.90;;;;;;5046657;28;20205;-68
2023/05/03 04:43:03;;;;;;;10.07;5.10;;;7.80;99.90;;;;;;5046563;28;20327;-67
2023/05/03 04:45:30;;;;;;;7.63;5.15;;;7.90;99.90;;;;;;5046533;28;20223;-68
2023/05/03 04:47:57;;;;;;;7.50;4.70;;;7.90;99.90;;;;;;5049541;28;20209;-67
2023/05/03 04:50:25;;;;;;;5.25;4.25;;;8.00;99.90;;;;;;5049390;28;20205;-67
2023/05/03 04:52:52;;;;;;;8.07;4.97;;;8.10;99.90;;;;;;5049391;28;20279;-67
2023/05/03 04:55:19;;;;;;;8.27;4.20;;;8.10;99.90;;;;;;5049438;28;20225;-68
2023/05/03 04:57:45;;;;;;;7.55;5.07;;;8.20;99.90;;;;;;5049850;28;20200;-67
2023/05/03 05:00:13;;;;;;;6.75;5.13;;;8.20;99.90;;;;;;5049294;28;20208;-68
2023/05/03 05:02:40;;;;;;;8.93;5.03;;;8.30;99.90;;;;;;5049235;28;20208;-67
2023/05/03 05:05:08;;;;;;;11.15;5.40;;;8.30;99.90;;;;;;5049507;28;20294;-68
2023/05/03 05:07:36;;;;;;;7.72;5.20;;;8.30;99.90;;;;;;5049070;28;20201;-68
2023/05/03 05:10:02;;;;;;;7.57;4.93;;;8.40;99.90;;;;;;5050444;28;20569;-67
2023/05/03 05:12:29;;;;;;;7.55;5.15;;;8.40;99.90;;;;;;5052722;28;20228;-68
2023/05/03 05:14:56;;;;;;;8.13;5.05;;;8.50;99.90;;;;;;5053618;28;20201;-68
2023/05/03 05:17:24;;;;;;;8.20;5.85;;;8.50;99.90;;;;;;5053070;28;20205;-67
2023/05/03 05:19:51;;;;;;;6.95;4.78;;;8.60;99.90;;;;;;5053243;28;20674;-67
2023/05/03 05:22:18;;;;;;;8.30;5.15;;;8.60;99.90;;;;;;5052647;28;20699;-68
2023/05/03 05:24:46;;;;;;;6.57;4.75;;;8.70;99.90;;;;;;5053505;28;20657;-67
2023/05/03 05:27:13;;;;;;;6.95;5.10;;;8.80;99.90;;;;;;5052964;28;20302;-68
2023/05/03 05:29:40;;;;;;;9.10;5.35;;;8.80;99.90;;;;;;5053001;28;20255;-68
2023/05/03 05:32:06;;;;;;;7.07;4.88;;;8.90;99.90;;;;;;5052815;28;20292;-68
2023/05/03 05:34:33;;;;;;;7.90;5.13;;;8.90;99.90;;;;;;5052655;28;20685;-68
2023/05/03 05:37:00;;;;;;;8.23;5.05;;;9.00;99.90;;;;;;5052932;28;20245;-68
2023/05/03 05:39:27;;;;;;;9.02;5.40;;;9.10;99.90;;;;;;5052489;28;20205;-68
2023/05/03 05:41:55;;;;;;;10.90;5.78;;;9.10;99.90;;;;;;5053135;28;20212;-68
2023/05/03 05:44:21;;;;;;;6.07;5.47;;;9.20;99.90;;;;;;5052372;28;20209;-68
2023/05/03 05:46:48;;;;;;;6.65;4.80;;;9.30;99.90;;;;;;5052954;28;20303;-68
2023/05/03 05:49:15;;;;;;;5.40;4.50;;;9.40;99.90;;;;;;5052585;28;20225;-68
2023/05/03 05:51:42;;;;;;;6.70;4.72;;;9.40;99.90;;;;;;5052680;28;20196;-68
2023/05/03 05:54:08;;;;;;;6.40;4.70;;;9.60;99.90;;;;;;5052243;28;20255;-68
2023/05/03 05:56:35;;;;;;;9.27;5.40;;;9.60;99.90;;;;;;5052380;28;20291;-68
2023/05/03 05:59:04;;;;;;;7.50;5.47;;;9.70;99.90;;;;;;5052646;28;20207;-68
2023/05/03 06:01:32;;;;;;;7.10;4.72;;;9.70;99.90;;;;;;5052257;28;20602;-67
2023/05/03 06:03:59;;;;;;;8.43;5.68;;;9.80;99.90;;;;;;5052421;28;20204;-68
2023/05/03 06:06:26;;;;;;;7.28;5.32;;;9.90;99.90;;;;;;5052038;28;20216;-68
2023/05/03 06:08:52;;;;;;;7.43;5.20;;;10.00;99.90;;;;;;5052465;28;20209;-68
2023/05/03 06:11:20;;;;;;;6.97;5.13;;;10.10;99.90;;;;;;5052608;28;20205;-69
2023/05/03 06:13:47;;;;;;;6.10;5.15;;;10.20;99.90;;;;;;5052155;28;20219;-68
2023/05/03 06:16:15;;;;;;;9.45;6.13;;;10.10;99.90;;;;;;5052469;28;20708;-68
2023/05/03 06:18:41;;;;;;;8.13;4.85;;;10.20;99.90;;;;;;5052386;28;20292;-69
2023/05/03 06:21:09;;;;;;;7.47;5.43;;;10.20;99.90;;;;;;5052005;28;20205;-68
2023/05/03 06:23:36;;;;;;;5.10;4.50;;;10.30;99.90;;;;;;5048772;28;20201;-68
2023/05/03 06:26:03;;;;;;;7.07;4.97;;;10.40;99.90;;;;;;5052434;28;20279;-69
2023/05/03 06:28:30;;;;;;;7.57;5.45;;;10.50;99.90;;;;;;5051995;28;20615;-68
2023/05/03 06:30:56;;;;;;;6.78;5.30;;;10.80;99.90;;;;;;5052237;28;20205;-68
2023/05/03 06:33:25;;;;;;;8.60;4.95;;;11.00;99.90;;;;;;5109520;22;20230;-66
2023/05/03 06:35:52;;;;;;;6.13;5.53;;;11.20;99.90;;;;;;5056077;28;20221;-66
2023/05/03 06:38:19;;;;;;;5.85;4.57;;;11.20;99.90;;;;;;5055783;28;20208;-67
2023/05/03 06:40:46;;;;;;;7.00;4.97;;;11.30;99.90;;;;;;5058198;28;20209;-67
2023/05/03 06:43:12;;;;;;;7.88;5.85;;;11.40;99.90;;;;;;5057057;28;20742;-67
2023/05/03 06:45:41;;;;;;;5.97;4.85;;;11.40;99.90;;;;;;5057257;28;20221;-66
2023/05/03 06:48:08;;;;;;;6.70;5.53;;;11.40;99.90;;;;;;5055470;28;20260;-66
2023/05/03 06:50:36;;;;;;;6.22;5.32;;;11.30;99.90;;;;;;5054659;28;20221;-66
2023/05/03 06:53:03;;;;;;;6.50;5.05;;;11.30;99.90;;;;;;5054683;28;20554;-68
2023/05/03 06:55:31;;;;;;;6.57;5.32;;;11.30;99.90;;;;;;5054469;28;20221;-68
2023/05/03 06:57:58;;;;;;;6.80;5.72;;;11.30;99.90;;;;;;5056635;28;20205;-67
2023/05/03 07:00:25;;;;;;;6.57;5.25;;;11.40;99.90;;;;;;5054615;28;20212;-66
2023/05/03 07:02:51;;;;;;;6.93;5.13;;;11.60;99.90;;;;;;5052178;28;20197;-67
2023/05/03 07:05:18;;;;;;;7.93;5.85;;;12.00;99.90;;;;;;5054445;28;20354;-67
2023/05/03 07:07:46;;;;;;;7.55;5.95;;;12.30;99.90;;;;;;5053561;28;20279;-67
2023/05/03 07:10:13;;;;;;;7.85;5.53;;;12.40;99.90;;;;;;5052800;28;20211;-67
2023/05/03 07:12:40;;;;;;;10.18;6.72;;;12.50;99.90;;;;;;5053345;28;20205;-67
2023/05/03 07:15:07;;;;;;;7.13;5.50;;;12.50;99.90;;;;;;5053850;28;20217;-67
2023/05/03 07:17:34;;;;;;;5.78;4.47;;;12.30;99.90;;;;;;5053432;28;20204;-66
2023/05/03 07:20:01;;;;;;;8.88;6.57;;;12.00;99.90;;;;;;5053634;28;20201;-67
2023/05/03 07:22:27;;;;;;;7.40;5.53;;;11.90;99.90;;;;;;5052723;28;20208;-67
2023/05/03 07:24:58;;;;;;;6.20;4.68;;;11.90;99.90;;;;;;5054124;28;20255;-67
2023/05/03 07:27:25;;;;;;;7.90;6.25;;;12.10;99.90;;;;;;5055080;28;20193;-68
2023/05/03 07:29:52;;;;;;;6.45;5.03;;;12.20;99.90;;;;;;5037653;28;20197;-68
2023/05/03 07:32:19;;;;;;;8.45;6.25;;;12.40;99.90;;;;;;5035798;28;20212;-68
2023/05/03 07:34:45;;;;;;;7.03;5.40;;;12.50;99.90;;;;;;5051738;28;20221;-68
2023/05/03 07:37:12;;;;;;;6.47;5.80;;;12.50;99.90;;;;;;5055208;28;20228;-68
2023/05/03 07:39:40;;;;;;;7.45;5.40;;;12.50;99.90;;;;;;5055551;28;20200;-67
2023/05/03 07:42:08;;;;;;;6.20;5.00;;;12.60;99.90;;;;;;5054458;28;20217;-68
2023/05/03 07:44:34;;;;;;;7.50;5.30;;;12.70;99.90;;;;;;5055104;28;20839;-67
2023/05/03 07:47:01;;;;;;;6.20;5.60;;;12.90;99.90;;;;;;5054867;28;20994;-68
2023/05/03 07:49:28;;;;;;;8.73;6.40;;;13.20;99.90;;;;;;5054138;28;20946;-68
2023/05/03 07:51:55;;;;;;;6.10;5.20;;;13.40;99.90;;;;;;5054699;28;20463;-68
2023/05/03 07:54:24;;;;;;;6.22;5.40;;;13.30;99.90;;;;;;5054176;28;20840;-68
2023/05/03 07:56:51;;;;;;;8.63;5.47;;;13.40;99.90;;;;;;5054449;28;20634;-68
2023/05/03 07:59:19;;;;;;;6.30;5.43;;;13.40;99.90;;;;;;5054031;28;20474;-68
2023/05/03 08:01:45;;;;;;;6.90;5.73;;;13.50;99.90;;;;;;5053636;28;20211;-68
2023/05/03 08:04:12;;;;;;;7.27;5.57;;;13.60;99.90;;;;;;5053624;28;20455;-68
2023/05/03 08:06:39;;;;;;;9.93;6.10;;;13.80;99.90;;;;;;5053604;28;20855;-68
2023/05/03 08:09:05;;;;;;;6.67;5.00;;;13.80;99.90;;;;;;5053647;28;20970;-68
2023/05/03 08:11:32;;;;;;;7.60;5.57;;;14.00;99.90;;;;;;5053112;28;20518;-68
2023/05/03 08:13:59;;;;;;;7.70;6.13;;;14.10;99.90;;;;;;5052890;28;20586;-68
2023/05/03 08:16:27;;;;;;;5.07;4.60;;;14.20;99.90;;;;;;5052981;28;20486;-67
2023/05/03 08:18:53;;;;;;;6.50;5.20;;;14.30;99.90;;;;;;5052580;28;20460;-67
2023/05/03 08:21:20;;;;;;;6.40;5.20;;;14.30;99.90;;;;;;5052470;28;20455;-68
2023/05/03 08:23:47;;;;;;;8.30;6.00;;;14.20;99.90;;;;;;5052779;28;20452;-67
2023/05/03 08:26:14;;;;;;;7.40;5.23;;;14.20;99.90;;;;;;5053312;28;20483;-67
2023/05/03 08:28:41;;;;;;;6.20;5.20;;;14.30;99.90;;;;;;5053370;28;20474;-67
2023/05/03 08:31:07;;;;;;;6.30;5.47;;;14.50;99.90;;;;;;5052970;28;20871;-67
2023/05/03 08:33:35;;;;;;;7.67;6.20;;;14.80;99.90;;;;;;5051243;28;20537;-67
2023/05/03 08:36:02;;;;;;;6.60;5.40;;;15.20;99.90;;;;;;5052270;28;20479;-67
2023/05/03 08:38:29;;;;;;;6.57;5.77;;;15.40;99.90;;;;;;5051919;28;20460;-67
2023/05/03 08:40:59;;;;;;;5.87;4.87;;;15.70;99.90;;;;;;5042248;28;20468;-67
2023/05/03 08:43:28;;;;;;;7.00;5.80;;;16.00;99.90;;;;;;5041198;28;20464;-67
2023/05/03 08:45:55;;;;;;;9.40;6.13;;;16.10;99.90;;;;;;5051669;28;20824;-67
2023/05/03 08:48:22;;;;;;;6.23;5.63;;;16.10;99.90;;;;;;5051184;28;20459;-69
2023/05/03 08:50:52;;;;;;;7.70;5.63;;;16.10;99.90;;;;;;5052383;28;20467;-68
2023/05/03 08:53:19;;;;;;;8.93;5.30;;;16.20;99.90;;;;;;5051666;28;20459;-68
2023/05/03 08:55:46;;;;;;;7.27;5.10;;;16.30;99.90;;;;;;5051289;28;20487;-68
2023/05/03 08:58:13;;;;;;;6.27;4.73;;;16.60;99.90;;;;;;5050441;28;20467;-66
2023/05/03 09:00:43;;;;;;;6.90;5.73;;;17.10;99.90;;;;;;5050538;28;20958;-67
2023/05/03 09:03:10;;;;;;;6.03;4.70;;;17.40;99.90;;;;;;5051924;28;20464;-67
2023/05/03 09:05:40;;;;;;;5.93;5.07;;;17.40;99.90;;;;;;5035359;28;20482;-68
2023/05/03 09:08:09;;;;;;;6.00;5.40;;;17.80;99.90;;;;;;5052258;28;21001;-67
2023/05/03 09:10:39;;;;;;;5.80;5.07;;;18.40;99.90;;;;;;5052620;28;20601;-67
2023/05/03 09:13:06;;;;;;;5.67;4.80;;;18.70;99.90;;;;;;5051738;28;20465;-67
2023/05/03 09:15:34;;;;;;;5.67;4.63;;;19.20;99.90;;;;;;5050647;28;20579;-67
2023/05/03 09:18:11;;;;;;;6.40;5.40;;;19.70;99.90;;;;;;5050966;28;20547;-67
2023/05/03 09:20:39;;;;;;;6.20;4.80;;;19.50;99.90;;;;;;5040710;28;20521;-67
2023/05/03 09:23:09;;;;;;;6.90;5.83;;;19.00;99.90;;;;;;5050690;28;20467;-67
2023/05/03 09:25:46;;;;;;;5.10;4.60;;;18.40;99.90;;;;;;5050024;28;20479;-67
2023/05/03 09:28:14;;;;;;;5.17;4.57;;;18.00;99.90;;;;;;5050279;28;20898;-67
2023/05/03 09:30:41;;;;;;;5.60;5.00;;;18.20;99.90;;;;;;5050804;28;20492;-67
2023/05/03 09:33:09;;;;;;;5.80;5.30;;;18.90;99.90;;;;;;5049450;28;20460;-67
2023/05/03 09:35:36;;;;;;;5.17;4.37;;;19.60;99.90;;;;;;5049855;28;20534;-67
2023/05/03 09:38:02;;;;;;;5.97;4.80;;;20.30;99.90;;;;;;5050252;28;20465;-67
2023/05/03 09:40:30;;;;;;;5.97;4.67;;;20.60;99.90;;;;;;5049976;28;20459;-67
2023/05/03 09:43:08;;;;;;;5.93;5.07;;;20.80;99.90;;;;;;5050097;28;20459;-67
2023/05/03 09:45:35;;;;;;;4.50;4.10;;;20.80;99.90;;;;;;5040657;28;20483;-68
2023/05/03 09:48:03;;;;;;;4.80;4.37;;;21.10;99.90;;;;;;5044271;28;20463;-67
2023/05/03 09:50:32;;;;;;;4.50;4.10;;;21.20;99.90;;;;;;5050148;28;20551;-67
2023/05/03 09:53:01;;;;;;;4.30;3.60;;;20.90;99.90;;;;;;5049684;28;20495;-67
2023/05/03 09:55:31;;;;;;;5.03;4.53;;;20.60;99.90;;;;;;5049513;28;20487;-67
2023/05/03 09:57:58;;;;;;;4.03;3.63;;;20.10;99.90;;;;;;5051937;28;20456;-67
2023/05/03 10:00:25;;;;;;;5.60;4.27;;;19.90;99.90;;;;;;5053223;28;20459;-67
2023/05/03 10:02:56;;;;;;;4.50;3.97;;;19.80;99.90;;;;;;5052257;28;20512;-67
2023/05/03 10:05:24;;;;;;;5.67;4.07;;;19.90;99.90;;;;;;5053371;28;20475;-67
2023/05/03 10:07:55;;;;;;;5.60;3.83;;;20.50;99.90;;;;;;5053954;28;20466;-67
2023/05/03 10:10:23;;;;;;;7.43;3.93;;;20.90;99.90;;;;;;5044224;28;20514;-67
2023/05/03 10:12:52;;;;;;;4.30;3.90;;;21.10;99.90;;;;;;5053503;28;20466;-67
2023/05/03 10:15:21;;;;;;;4.63;3.90;;;21.70;99.90;;;;;;5053351;28;20855;-67
2023/05/03 10:17:51;;;;;;;4.40;3.87;;;22.70;99.90;;;;;;5056174;28;20470;-67
2023/05/03 10:20:25;;;;;;;4.37;3.97;;;23.00;99.90;;;;;;5048596;28;20466;-67
2023/05/03 10:23:07;;;;;;;4.27;3.93;;;23.00;98.30;;;;;;5055459;28;20457;-67
2023/05/03 10:25:35;;;;;;;3.70;3.40;;;22.80;98.20;;;;;;5053997;28;20835;-67
2023/05/03 10:28:04;;;;;;;4.80;3.50;;;22.70;98.30;;;;;;5052448;28;20471;-67
2023/05/03 10:30:33;;;;;;;4.37;3.97;;;22.10;98.20;;;;;;5053768;28;20459;-67
2023/05/03 10:33:26;;;;;;;4.60;4.10;;;21.30;99.30;;;;;;5045477;28;20506;-67
2023/05/03 10:35:54;;;;;;;5.40;4.33;;;20.70;99.90;;;;;;5041165;28;20498;-67
2023/05/03 10:38:22;;;;;;;5.47;4.47;;;20.40;99.90;;;;;;5053802;28;20954;-67
2023/05/03 10:40:49;;;;;;;3.80;3.40;;;21.10;99.90;;;;;;5053505;28;20463;-67
2023/05/03 10:43:47;;;;;;;5.20;4.20;;;22.20;99.50;;;;;;5053066;28;20472;-67
2023/05/03 10:46:34;;;;;;;3.97;3.60;;;22.90;98.30;;;;;;5052327;28;20476;-67
2023/05/03 10:49:20;;;;;;;5.40;4.13;;;23.50;98.10;;;;;;5052833;28;20468;-67
2023/05/03 10:51:48;;;;;;;3.13;2.87;;;24.00;97.10;;;;;;5052660;28;20464;-67
2023/05/03 10:54:15;;;;;;;4.40;4.00;;;24.70;97.70;;;;;;5051844;28;20474;-67
2023/05/03 10:56:49;;;;;;;3.57;3.27;;;25.40;97.00;;;;;;5051871;28;20501;-67
2023/05/03 10:59:18;;;;;;;3.70;3.17;;;25.60;96.60;;;;;;5051841;28;20955;-67
2023/05/03 11:01:46;;;;;;;4.20;3.50;;;25.30;95.50;;;;;;5045962;28;20479;-67
2023/05/03 11:04:22;;;;;;;4.20;3.80;;;24.70;95.30;;;;;;5053895;28;20818;-67
2023/05/03 11:06:50;;;;;;;4.83;4.33;;;23.80;95.50;;;;;;5054718;28;20977;-67
2023/05/03 11:09:17;;;;;;;5.40;4.00;;;23.90;96.70;;;;;;5052453;28;20502;-67
2023/05/03 11:11:44;;;;;;;3.47;3.13;;;24.60;96.50;;;;;;5053858;28;20819;-67
2023/05/03 11:14:12;;;;;;;3.87;3.57;;;25.30;95.60;;;;;;5052792;28;20539;-67
2023/05/03 11:16:46;;;;;;;4.23;3.37;;;25.20;94.30;;;;;;5053300;28;20525;-67
2023/05/03 11:19:14;;;;;;;3.50;3.20;;;24.40;94.00;;;;;;5053186;28;20840;-67
2023/05/03 11:21:42;;;;;;;3.80;3.50;;;23.60;96.00;;;;;;5052752;28;20471;-67
2023/05/03 11:24:08;;;;;;;3.53;3.23;;;23.60;95.90;;;;;;5052917;28;20467;-67
2023/05/03 11:26:36;;;;;;;3.27;2.97;;;23.90;95.90;;;;;;5052432;28;20487;-67
2023/05/03 11:29:03;;;;;;;4.10;3.70;;;24.70;95.10;;;;;;5052717;28;20468;-67
2023/05/03 11:31:29;;;;;;;3.57;3.27;;;24.70;94.70;;;;;;5051854;28;20466;-67
2023/05/03 11:33:57;;;;;;;3.53;3.10;;;24.30;94.40;;;;;;5052040;28;20472;-67
2023/05/03 11:36:26;;;;;;;4.33;3.30;;;23.70;93.80;;;;;;5052634;28;20497;-67
2023/05/03 11:38:53;;;;;;;4.97;4.30;;;22.50;94.50;;;;;;5040732;28;20466;-67
2023/05/03 11:41:20;;;;;;;4.00;3.27;;;22.10;95.10;;;;;;5052441;28;20465;-67
2023/05/03 11:43:48;;;;;;;3.80;3.27;;;22.50;95.60;;;;;;5051939;28;21154;-67
2023/05/03 11:46:17;;;;;;;3.53;3.23;;;23.60;95.40;;;;;;5044318;28;20480;-68
2023/05/03 11:48:44;;;;;;;3.20;2.90;;;24.60;95.00;;;;;;5052106;28;20456;-67
2023/05/03 11:51:13;;;;;;;3.20;2.90;;;25.40;94.40;;;;;;5051806;28;20461;-68
2023/05/03 11:53:41;;;;;;;3.80;3.40;;;25.80;94.10;;;;;;5034910;28;21027;-67
2023/05/03 11:56:11;;;;;;;4.07;3.67;;;25.60;93.20;;;;;;5051486;28;20483;-67
2023/05/03 11:58:50;;;;;;;4.90;3.40;;;25.70;93.20;;;;;;5050238;28;20468;-67
2023/05/03 12:01:17;;;;;;;3.90;3.50;;;25.60;92.70;;;;;;5050668;28;20468;-67
2023/05/03 12:03:46;;;;;;;3.17;2.87;;;25.40;92.10;;;;;;5051056;28;20497;-67
2023/05/03 12:06:15;;;;;;;4.13;3.63;;;25.20;91.10;;;;;;5050922;28;20998;-67
2023/05/03 12:08:42;;;;;;;3.57;3.23;;;25.20;92.60;;;;;;5051181;28;20459;-67
2023/05/03 12:11:09;;;;;;;3.57;3.20;;;25.70;92.50;;;;;;5051058;28;20839;-67
2023/05/03 12:13:37;;;;;;;3.33;2.87;;;26.20;91.70;;;;;;5050350;28;21026;-67
2023/05/03 12:16:04;;;;;;;3.67;3.37;;;26.00;91.10;;;;;;5050306;28;20483;-67
2023/05/03 12:18:48;;;;;;;3.93;3.53;;;26.10;90.90;;;;;;5050303;28;20458;-67
2023/05/03 12:21:17;;;;;;;3.30;3.00;;;24.90;91.10;;;;;;5050970;28;20489;-67
2023/05/03 12:23:43;;;;;;;2.87;2.67;;;24.40;92.50;;;;;;5045116;28;20474;-67
2023/05/03 12:26:10;;;;;;;3.97;3.07;;;24.80;91.90;;;;;;5046505;28;20487;-67
2023/05/03 12:28:37;;;;;;;3.53;3.23;;;25.40;91.50;;;;;;5049723;28;20489;-68
2023/05/03 12:31:04;;;;;;;3.77;3.37;;;25.40;90.90;;;;;;5049791;28;20457;-68
2023/05/03 12:33:34;;;;;;;3.07;2.43;;;25.60;91.20;;;;;;5064465;22;20496;-88
2023/05/03 12:36:06;;;;;;;3.37;2.57;;;25.60;92.80;;;;;;5051688;28;20980;-90
2023/05/03 12:38:37;;;;;;;3.90;3.50;;;25.60;90.60;;;;;;5051880;28;20535;-88
2023/05/03 12:41:04;;;;;;;4.10;3.20;;;24.70;90.80;;;;;;5049137;28;20465;-89
2023/05/03 12:43:30;;;;;;;2.83;2.63;;;23.50;91.30;;;;;;5050756;28;21000;-90
2023/05/03 12:46:02;;;;;;;4.40;3.10;;;22.80;91.70;;;;;;5052527;28;20490;-90
2023/05/03 12:48:33;;;;;;;2.97;2.67;;;22.30;92.70;;;;;;5051897;28;20486;-90
2023/05/03 12:51:00;;;;;;;3.20;2.90;;;22.60;93.00;;;;;;5037901;28;20468;-89
2023/05/03 12:53:29;;;;;;;3.70;3.00;;;22.90;92.10;;;;;;5050404;28;20552;-90
2023/05/03 12:55:58;;;;;;;3.40;3.10;;;22.70;92.40;;;;;;5052219;28;20456;-89
2023/05/03 12:58:25;;;;;;;3.80;3.20;;;22.50;94.20;;;;;;5051946;28;20466;-89